Impacts TAF Board
For situational awareness. Not to be used for flight planning purposes.
IDs:

KSAN - San Diego Intl Arpt, CA, US

Issued at 0520 UTC 18 Oct 2018
Updated at 0537 UTC 18 Oct 2018
Potential Impact None Slight Moderate High
Time<<19/06Z 19/07Z 19/08Z 19/09Z 19/10Z 19/11Z 19/12Z 19/13Z 19/14Z 19/15Z 19/16Z 19/17Z 19/18Z
Type PRVL PRVL PRVL PRVL PRVL PRVL
VIS >6 >6 >6 >6 >6 >6
CIG -- -- -- -- -- --
Cover SKC SKC SKC SKC SKC SKC
FltCat VFR VFR VFR VFR VFR VFR
WX -- -- -- -- -- --
WDir VRB VRB VRB VRB VRB VRB
WSpd 4 4 4 4 4 4
WGst -- -- -- -- -- --
Raw TAF
KSAN 180520Z 1806/1912 33004KT P6SM SKC
  FM182000 31009KT P6SM SKC
  FM190100 VRB04KT P6SM SKC


METAR Board
Radar Display
Forecast Discussion
For situational awareness. Not to be used for flight planning purposes.